Redbird, Oklahoma
Current Conditions -  °F | °C
As of 11:53 PM on Wednesday 22 Oct 2014 (Local Time) from KMKO Reporting Station
Clear Clear  
Wind Chill: 62°   Ceiling: Unl
Heat Index: 62°   Visibility: 10mi
Dew Point: 53°   Wind: 8mph
Humidity: 72%   Direction: 140°SE
Pressure: 30.15"   Gusts: NA
Location:  35.89°N, 95.59°W
Report Text: KMKO 230453Z AUTO 14007KT 10SM CLR 17/12 A3015 RMK AO2 SLP204 T01670117
Loading
Personal Weather Stations






























Interactive Weather Map
Tropical Storm Tracking
New forecast layout! Learn more

10-Day Weather Forecast

Advertisements
Track Severe Weather on mobile